Time,TemperatureF,DewpointF,PressureIn,WindDirection,WindDirectionDegrees,WindSpeedMPH,WindSpeedGustMPH,Humidity,HourlyPrecipIn,Conditions,Clouds,dailyrainin,SoftwareType,DateUTC
2013-07-17 00:00:00,70.3,68.8,30.28,North,355,0.0,0.0,95,0.00,,,0.00,VWS V14.01,2013-07-17 04:00:00,
2013-07-17 00:01:00,70.4,68.9,30.28,North,356,0.0,0.0,95,0.00,,CLR,0.00,VWS V14.01,2013-07-17 04:01:00,
2013-07-17 00:03:00,70.3,68.8,30.28,North,356,0.0,0.0,95,0.00,,CLR,0.00,VWS V14.01,2013-07-17 04:03:00,
2013-07-17 00:04:00,70.3,68.8,30.28,North,355,0.0,0.0,95,0.00,,CLR,0.00,VWS V14.01,2013-07-17 04:04:00,
2013-07-17 00:09:00,70.3,69.1,30.28,North,355,0.0,0.0,96,0.00,,CLR,0.00,VWS V14.01,2013-07-17 04:09:00,
2013-07-17 00:14:00,70.3,69.1,30.28,North,356,0.0,0.0,96,0.00,,CLR,0.00,VWS V14.01,2013-07-17 04:14:00,
2013-07-17 00:19:00,70.4,69.2,30.27,North,356,0.0,0.0,96,0.00,,CLR,0.00,VWS V14.01,2013-07-17 04:19:00,
2013-07-17 00:24:00,70.3,69.1,30.28,North,356,0.0,0.0,96,0.00,,CLR,0.00,VWS V14.01,2013-07-17 04:24:00,
2013-07-17 00:29:00,70.2,69.0,30.28,North,355,0.0,0.0,96,0.00,,CLR,0.00,VWS V14.01,2013-07-17 04:29:00,
2013-07-17 00:30:00,70.1,68.9,30.28,North,355,0.0,0.0,96,0.00,,,0.00,VWS V14.01,2013-07-17 04:30:00,
2013-07-17 00:34:00,70.0,68.5,30.28,North,355,0.0,0.0,95,0.00,,CLR,0.00,VWS V14.01,2013-07-17 04:34:00,
2013-07-17 00:39:00,70.0,68.8,30.28,West,278,0.0,0.0,96,0.00,,CLR,0.00,VWS V14.01,2013-07-17 04:39:00,
2013-07-17 00:45:00,70.1,68.9,30.28,West,262,0.0,0.0,96,0.00,,CLR,0.00,VWS V14.01,2013-07-17 04:45:00,
2013-07-17 00:50:00,70.1,68.9,30.28,West,274,0.0,0.0,96,0.00,,,0.00,VWS V14.01,2013-07-17 04:50:00,
2013-07-17 00:55:00,70.2,68.7,30.28,West,274,0.0,0.0,95,0.00,,,0.00,VWS V14.01,2013-07-17 04:55:00,
2013-07-17 00:57:00,70.1,68.6,30.28,West,274,0.0,0.0,95,0.00,,,0.00,VWS V14.01,2013-07-17 04:57:00,
2013-07-17 01:00:00,70.1,68.6,30.27,West,274,0.0,0.0,95,0.00,,,0.00,VWS V14.01,2013-07-17 05:00:00,
2013-07-17 01:02:00,70.1,68.6,30.27,West,274,0.0,0.0,95,0.00,,,0.00,VWS V14.01,2013-07-17 05:02:00,
2013-07-17 01:03:00,70.1,68.6,30.27,West,274,0.0,0.0,95,0.00,,,0.00,VWS V14.01,2013-07-17 05:03:00,
2013-07-17 01:08:00,70.0,68.5,30.27,West,274,0.0,0.0,95,0.00,,,0.00,VWS V14.01,2013-07-17 05:08:00,
2013-07-17 01:13:00,69.9,68.4,30.27,West,274,0.0,0.0,95,0.00,,,0.00,VWS V14.01,2013-07-17 05:13:00,
2013-07-17 01:18:00,69.7,68.2,30.27,West,274,0.0,0.0,95,0.00,,,0.00,VWS V14.01,2013-07-17 05:18:00,
2013-07-17 01:24:00,69.6,68.1,30.27,West,274,0.0,0.0,95,0.00,,,0.00,VWS V14.01,2013-07-17 05:24:00,
2013-07-17 01:29:00,69.4,67.6,30.27,West,274,0.0,0.0,94,0.00,,,0.00,VWS V14.01,2013-07-17 05:29:00,
2013-07-17 01:30:00,69.4,67.9,30.27,West,274,0.0,0.0,95,0.00,,,0.00,VWS V14.01,2013-07-17 05:30:00,
2013-07-17 01:34:00,69.4,67.9,30.27,West,274,0.0,0.0,95,0.00,,,0.00,VWS V14.01,2013-07-17 05:34:00,
2013-07-17 01:39:00,69.3,67.5,30.27,West,274,0.0,0.0,94,0.00,,,0.00,VWS V14.01,2013-07-17 05:39:00,
2013-07-17 01:44:00,69.1,67.3,30.27,West,274,0.0,0.0,94,0.00,,,0.00,VWS V14.01,2013-07-17 05:44:00,
2013-07-17 01:49:00,68.9,67.1,30.27,West,274,0.0,0.0,94,0.00,,,0.00,VWS V14.01,2013-07-17 05:49:00,
2013-07-17 01:54:00,68.7,66.9,30.26,West,274,0.0,0.0,94,0.00,,,0.00,VWS V14.01,2013-07-17 05:54:00,
2013-07-17 01:59:00,68.6,67.1,30.27,West,274,0.0,0.0,95,0.00,,,0.00,VWS V14.01,2013-07-17 05:59:00,
2013-07-17 02:00:00,68.6,67.1,30.26,West,274,0.0,0.0,95,0.00,,,0.00,VWS V14.01,2013-07-17 06:00:00,
2013-07-17 02:04:00,68.6,67.1,30.27,West,274,0.0,0.0,95,0.00,,,0.00,VWS V14.01,2013-07-17 06:04:00,
2013-07-17 02:10:00,68.6,67.1,30.26,West,274,0.0,0.0,95,0.00,,,0.00,VWS V14.01,2013-07-17 06:10:00,
2013-07-17 02:15:00,68.6,67.1,30.26,West,275,0.0,0.0,95,0.00,,,0.00,VWS V14.01,2013-07-17 06:15:00,
2013-07-17 02:20:00,68.7,67.2,30.26,West,276,0.0,0.0,95,0.00,,,0.00,VWS V14.01,2013-07-17 06:20:00,
2013-07-17 02:25:00,68.8,67.3,30.26,West,277,0.0,0.0,95,0.00,,,0.00,VWS V14.01,2013-07-17 06:25:00,
2013-07-17 02:30:00,68.8,67.3,30.26,West,277,0.0,0.0,95,0.00,,,0.00,VWS V14.01,2013-07-17 06:30:00,
2013-07-17 02:35:00,68.7,66.9,30.26,West,277,0.0,0.0,94,0.00,,,0.00,VWS V14.01,2013-07-17 06:35:00,
2013-07-17 02:40:00,68.7,66.9,30.26,West,277,0.0,0.0,94,0.00,,,0.00,VWS V14.01,2013-07-17 06:40:00,
2013-07-17 02:45:00,68.7,66.9,30.26,West,277,0.0,0.0,94,0.00,,,0.00,VWS V14.01,2013-07-17 06:45:00,
2013-07-17 02:50:00,68.6,66.8,30.26,West,277,0.0,0.0,94,0.00,,,0.00,VWS V14.01,2013-07-17 06:50:00,
2013-07-17 02:56:00,68.7,66.9,30.27,West,276,0.0,0.0,94,0.00,,,0.00,VWS V14.01,2013-07-17 06:56:00,
2013-07-17 03:00:00,68.7,66.9,30.27,WSW,257,0.0,0.0,94,0.00,,,0.00,VWS V14.01,2013-07-17 07:00:00,
2013-07-17 03:01:00,68.7,66.9,30.27,West,276,0.0,0.0,94,0.00,,,0.00,VWS V14.01,2013-07-17 07:01:00,
2013-07-17 03:06:00,68.8,66.7,30.27,WSW,257,0.0,0.0,93,0.00,,,0.00,VWS V14.01,2013-07-17 07:06:00,
2013-07-17 03:11:00,68.8,66.7,30.26,WSW,257,0.0,0.0,93,0.00,,,0.00,VWS V14.01,2013-07-17 07:11:00,
2013-07-17 03:16:00,68.8,66.7,30.26,WSW,257,0.0,0.0,93,0.00,,,0.00,VWS V14.01,2013-07-17 07:16:00,
2013-07-17 03:21:00,68.6,66.5,30.26,WSW,257,0.0,0.0,93,0.00,,,0.00,VWS V14.01,2013-07-17 07:21:00,
2013-07-17 03:26:00,68.4,66.3,30.26,WSW,257,0.0,0.0,93,0.00,,,0.00,VWS V14.01,2013-07-17 07:26:00,
2013-07-17 03:30:00,68.3,66.2,30.26,WSW,257,0.0,0.0,93,0.00,,,0.00,VWS V14.01,2013-07-17 07:30:00,
2013-07-17 03:31:00,68.3,66.2,30.26,WSW,257,0.0,0.0,93,0.00,,,0.00,VWS V14.01,2013-07-17 07:31:00,
2013-07-17 03:37:00,68.3,66.5,30.26,WSW,257,0.0,0.0,94,0.00,,,0.00,VWS V14.01,2013-07-17 07:37:00,
2013-07-17 03:42:00,68.2,66.1,30.26,WSW,257,0.0,0.0,93,0.00,,,0.00,VWS V14.01,2013-07-17 07:42:00,
2013-07-17 03:47:00,68.0,65.9,30.26,WSW,257,0.0,0.0,93,0.00,,,0.00,VWS V14.01,2013-07-17 07:47:00,
2013-07-17 03:52:00,67.7,65.6,30.26,WSW,257,0.0,0.0,93,0.00,,,0.00,VWS V14.01,2013-07-17 07:52:00,
2013-07-17 03:57:00,67.5,65.7,30.26,WSW,257,0.0,0.0,94,0.00,,,0.00,VWS V14.01,2013-07-17 07:57:00,
2013-07-17 04:00:00,67.3,65.5,30.27,WSW,257,0.0,0.0,94,0.00,,,0.00,VWS V14.01,2013-07-17 08:00:00,
2013-07-17 04:02:00,67.4,65.6,30.26,WSW,257,0.0,0.0,94,0.00,,,0.00,VWS V14.01,2013-07-17 08:02:00,
2013-07-17 04:07:00,67.1,65.3,30.27,WSW,257,0.0,0.0,94,0.00,,,0.00,VWS V14.01,2013-07-17 08:07:00,
2013-07-17 04:12:00,67.0,65.2,30.27,WSW,257,0.0,0.0,94,0.00,,,0.00,VWS V14.01,2013-07-17 08:12:00,
2013-07-17 04:17:00,67.0,65.5,30.27,WSW,257,0.0,0.0,95,0.00,,,0.00,VWS V14.01,2013-07-17 08:17:00,
2013-07-17 04:23:00,67.0,65.5,30.27,WSW,257,0.0,0.0,95,0.00,,,0.00,VWS V14.01,2013-07-17 08:23:00,
2013-07-17 04:28:00,66.8,65.3,30.27,WSW,257,0.0,0.0,95,0.00,,,0.00,VWS V14.01,2013-07-17 08:28:00,
2013-07-17 04:30:00,66.7,65.2,30.27,WSW,257,0.0,0.0,95,0.00,,,0.00,VWS V14.01,2013-07-17 08:30:00,
2013-07-17 04:33:00,66.7,65.2,30.27,WSW,257,0.0,0.0,95,0.00,,,0.00,VWS V14.01,2013-07-17 08:33:00,
2013-07-17 04:38:00,66.6,65.1,30.27,WSW,257,0.0,0.0,95,0.00,,,0.00,VWS V14.01,2013-07-17 08:38:00,
2013-07-17 04:43:00,66.7,65.2,30.27,WSW,257,0.0,0.0,95,0.00,,,0.00,VWS V14.01,2013-07-17 08:43:00,
2013-07-17 04:48:00,66.7,65.2,30.27,WSW,257,0.0,0.0,95,0.00,,,0.00,VWS V14.01,2013-07-17 08:48:00,
2013-07-17 04:53:00,66.6,65.1,30.27,WSW,257,0.0,0.0,95,0.00,,,0.00,VWS V14.01,2013-07-17 08:53:00,
2013-07-17 04:58:00,66.5,65.3,30.27,WSW,257,0.0,0.0,96,0.00,,,0.00,VWS V14.01,2013-07-17 08:58:00,
2013-07-17 05:00:00,66.5,65.3,30.27,WSW,257,0.0,0.0,96,0.00,,,0.00,VWS V14.01,2013-07-17 09:00:00,
2013-07-17 05:03:00,66.5,65.3,30.27,WSW,257,0.0,0.0,96,0.00,,,0.00,VWS V14.01,2013-07-17 09:03:00,
2013-07-17 05:08:00,66.6,65.4,30.27,WSW,257,0.0,0.0,96,0.00,,,0.00,VWS V14.01,2013-07-17 09:08:00,
2013-07-17 05:13:00,66.5,65.3,30.27,WSW,257,0.0,0.0,96,0.00,,,0.00,VWS V14.01,2013-07-17 09:13:00,
2013-07-17 05:18:00,66.5,65.3,30.27,WSW,257,0.0,0.0,96,0.00,,,0.00,VWS V14.01,2013-07-17 09:18:00,
2013-07-17 05:24:00,66.6,65.4,30.27,WSW,257,0.0,0.0,96,0.00,,,0.00,VWS V14.01,2013-07-17 09:24:00,
2013-07-17 05:29:00,66.6,65.4,30.27,WSW,257,0.0,0.0,96,0.00,,,0.00,VWS V14.01,2013-07-17 09:29:00,
2013-07-17 05:30:00,66.6,65.4,30.27,WSW,257,0.0,0.0,96,0.00,,,0.00,VWS V14.01,2013-07-17 09:30:00,
2013-07-17 05:34:00,66.6,65.4,30.27,WSW,257,0.0,0.0,96,0.00,,,0.00,VWS V14.01,2013-07-17 09:34:00,
2013-07-17 05:39:00,66.5,65.3,30.27,WSW,257,0.0,0.0,96,0.00,,,0.00,VWS V14.01,2013-07-17 09:39:00,
2013-07-17 05:44:00,66.7,65.5,30.27,WSW,257,0.0,0.0,96,0.00,,,0.00,VWS V14.01,2013-07-17 09:44:00,
2013-07-17 05:49:00,66.7,65.5,30.27,WSW,257,0.0,0.0,96,0.00,,,0.00,VWS V14.01,2013-07-17 09:49:00,
2013-07-17 05:54:00,66.7,65.5,30.27,WSW,257,0.0,0.0,96,0.00,,,0.00,VWS V14.01,2013-07-17 09:54:00,
2013-07-17 05:59:00,66.7,65.5,30.27,WSW,257,0.0,0.0,96,0.00,,,0.00,VWS V14.01,2013-07-17 09:59:00,
2013-07-17 06:00:00,66.6,65.4,30.28,WSW,257,0.0,0.0,96,0.00,,,0.00,VWS V14.01,2013-07-17 10:00:00,
2013-07-17 06:04:00,66.6,65.4,30.28,WSW,257,0.0,0.0,96,0.00,,,0.00,VWS V14.01,2013-07-17 10:04:00,
2013-07-17 06:10:00,66.7,65.5,30.28,WSW,257,0.0,0.0,96,0.00,,,0.00,VWS V14.01,2013-07-17 10:10:00,
2013-07-17 06:15:00,66.7,65.5,30.28,WSW,257,0.0,0.0,96,0.00,,,0.00,VWS V14.01,2013-07-17 10:15:00,
2013-07-17 06:20:00,66.9,65.7,30.28,WSW,257,0.0,0.0,96,0.00,,,0.00,VWS V14.01,2013-07-17 10:20:00,
2013-07-17 06:25:00,67.3,66.4,30.28,WSW,257,0.0,0.0,97,0.00,,,0.00,VWS V14.01,2013-07-17 10:25:00,
2013-07-17 06:30:00,67.6,66.4,30.28,WSW,257,0.0,0.0,96,0.00,,,0.00,VWS V14.01,2013-07-17 10:30:00,
2013-07-17 06:35:00,67.8,66.6,30.28,West,260,0.0,0.0,96,0.00,,,0.00,VWS V14.01,2013-07-17 10:35:00,
2013-07-17 06:40:00,68.1,66.9,30.29,West,263,0.0,0.0,96,0.00,,,0.00,VWS V14.01,2013-07-17 10:40:00,
2013-07-17 06:45:00,68.5,67.3,30.29,West,259,0.0,0.0,96,0.00,,,0.00,VWS V14.01,2013-07-17 10:45:00,
2013-07-17 06:50:00,68.9,67.4,30.29,West,259,0.0,0.0,95,0.00,,,0.00,VWS V14.01,2013-07-17 10:50:00,
2013-07-17 06:56:00,69.1,67.3,30.29,West,260,0.0,0.0,94,0.00,,,0.00,VWS V14.01,2013-07-17 10:56:00,
2013-07-17 07:00:00,69.2,67.4,30.29,West,260,0.0,0.0,94,0.00,,,0.00,VWS V14.01,2013-07-17 11:00:00,
2013-07-17 07:01:00,69.2,67.4,30.29,West,260,0.0,0.0,94,0.00,,,0.00,VWS V14.01,2013-07-17 11:01:00,
2013-07-17 07:06:00,69.3,67.5,30.28,West,260,0.0,0.0,94,0.00,,,0.00,VWS V14.01,2013-07-17 11:06:00,
2013-07-17 07:11:00,69.6,67.8,30.29,West,260,0.0,0.0,94,0.00,,,0.00,VWS V14.01,2013-07-17 11:11:00,
2013-07-17 07:16:00,69.8,68.0,30.29,West,260,0.0,0.0,94,0.00,,,0.00,VWS V14.01,2013-07-17 11:16:00,
2013-07-17 07:21:00,70.1,68.0,30.29,WSW,256,0.0,0.0,93,0.00,,,0.00,VWS V14.01,2013-07-17 11:21:00,
2013-07-17 07:26:00,70.4,68.3,30.29,WSW,255,0.0,0.0,93,0.00,,,0.00,VWS V14.01,2013-07-17 11:26:00,
2013-07-17 07:30:00,70.9,68.5,30.29,WSW,256,0.0,0.0,92,0.00,,,0.00,VWS V14.01,2013-07-17 11:30:00,
2013-07-17 07:31:00,70.8,68.4,30.29,WSW,255,0.0,0.0,92,0.00,,,0.00,VWS V14.01,2013-07-17 11:31:00,
2013-07-17 07:37:00,71.2,68.8,30.28,WSW,256,0.0,0.0,92,0.00,,,0.00,VWS V14.01,2013-07-17 11:37:00,
2013-07-17 07:42:00,71.5,69.1,30.28,WSW,256,0.0,0.0,92,0.00,,,0.00,VWS V14.01,2013-07-17 11:42:00,
2013-07-17 07:47:00,71.8,69.3,30.28,WSW,257,0.0,1.0,92,0.00,,,0.00,VWS V14.01,2013-07-17 11:47:00,
2013-07-17 07:52:00,72.0,69.6,30.28,WSW,257,0.0,1.0,92,0.00,,,0.00,VWS V14.01,2013-07-17 11:52:00,
2013-07-17 07:57:00,72.3,69.5,30.28,WSW,257,0.0,1.0,91,0.00,,,0.00,VWS V14.01,2013-07-17 11:57:00,
2013-07-17 08:00:00,72.8,70.0,30.28,WSW,257,0.0,1.0,91,0.00,,,0.00,VWS V14.01,2013-07-17 12:00:00,
2013-07-17 08:02:00,72.7,69.9,30.28,WSW,257,0.0,1.0,91,0.00,,,0.00,VWS V14.01,2013-07-17 12:02:00,
2013-07-17 08:07:00,73.4,70.6,30.28,WSW,257,0.0,0.0,91,0.00,,,0.00,VWS V14.01,2013-07-17 12:07:00,
2013-07-17 08:15:00,73.6,70.8,30.28,WSW,257,0.0,0.0,91,0.00,,,0.00,VWS V14.01,2013-07-17 12:15:00,
2013-07-17 08:20:00,74.9,71.4,30.27,WSW,253,0.0,0.0,89,0.00,,,0.00,VWS V14.01,2013-07-17 12:20:00,
2013-07-17 08:25:00,75.3,71.5,30.27,WSW,253,0.0,0.0,88,0.00,,,0.00,VWS V14.01,2013-07-17 12:25:00,
2013-07-17 08:30:00,75.5,71.7,30.27,WSW,250,0.0,0.0,88,0.00,,,0.00,VWS V14.01,2013-07-17 12:30:00,
2013-07-17 08:36:00,75.9,71.8,30.27,WSW,253,0.0,0.0,87,0.00,,,0.00,VWS V14.01,2013-07-17 12:36:00,
2013-07-17 08:41:00,76.3,72.2,30.27,WSW,252,0.0,1.0,87,0.00,,,0.00,VWS V14.01,2013-07-17 12:41:00,
2013-07-17 08:46:00,76.7,72.5,30.27,WSW,250,1.0,1.0,87,0.00,,,0.00,VWS V14.01,2013-07-17 12:46:00,
2013-07-17 08:51:00,77.1,72.9,30.27,WSW,249,0.0,2.0,87,0.00,,,0.00,VWS V14.01,2013-07-17 12:51:00,
2013-07-17 08:56:00,77.5,73.0,30.27,West,262,0.0,2.0,86,0.00,,,0.00,VWS V14.01,2013-07-17 12:56:00,
2013-07-17 09:01:00,77.9,72.7,30.27,West,263,1.0,2.0,84,0.00,,,0.00,VWS V14.01,2013-07-17 13:01:00,
2013-07-17 09:06:00,78.3,73.1,30.27,WSW,256,0.0,1.0,84,0.00,,,0.00,VWS V14.01,2013-07-17 13:06:00,
2013-07-17 09:12:00,78.9,73.7,30.27,WSW,250,0.0,1.0,84,0.00,,,0.00,VWS V14.01,2013-07-17 13:12:00,
2013-07-17 09:17:00,79.6,74.0,30.27,West,264,1.0,1.0,83,0.00,,CLR,0.00,VWS V14.01,2013-07-17 13:17:00,
2013-07-17 09:22:00,80.2,74.2,30.27,West,264,0.0,1.0,82,0.00,,CLR,0.00,VWS V14.01,2013-07-17 13:22:00,
2013-07-17 09:27:00,80.8,74.4,30.27,WSW,253,0.0,1.0,81,0.00,,CLR,0.00,VWS V14.01,2013-07-17 13:27:00,
2013-07-17 09:32:00,81.4,75.0,30.27,WSW,257,0.0,1.0,81,0.00,,CLR,0.00,VWS V14.01,2013-07-17 13:32:00,
2013-07-17 09:37:00,81.8,75.0,30.27,WSW,256,0.0,1.0,80,0.00,,CLR,0.00,VWS V14.01,2013-07-17 13:37:00,
2013-07-17 09:42:00,82.2,75.4,30.27,WSW,243,0.0,1.0,80,0.00,,CLR,0.00,VWS V14.01,2013-07-17 13:42:00,
2013-07-17 09:48:00,82.7,75.9,30.26,WSW,248,1.0,2.0,80,0.00,,CLR,0.00,VWS V14.01,2013-07-17 13:48:00,
2013-07-17 09:53:00,83.0,76.2,30.26,West,267,1.0,2.0,80,0.00,,CLR,0.00,VWS V14.01,2013-07-17 13:53:00,
2013-07-17 09:58:00,83.2,76.4,30.26,WSW,256,0.0,2.0,80,0.00,,CLR,0.00,VWS V14.01,2013-07-17 13:58:00,
2013-07-17 10:03:00,83.3,76.1,30.26,WSW,251,0.0,0.0,79,0.00,,CLR,0.00,VWS V14.01,2013-07-17 14:03:00,
2013-07-17 10:08:00,83.6,76.8,30.26,WSW,253,1.0,2.0,80,0.00,,CLR,0.00,VWS V14.01,2013-07-17 14:08:00,
2013-07-17 10:13:00,84.0,76.8,30.26,WSW,248,1.0,2.0,79,0.00,,CLR,0.00,VWS V14.01,2013-07-17 14:13:00,
2013-07-17 10:18:00,84.6,77.0,30.26,WSW,258,1.0,2.0,78,0.00,,CLR,0.00,VWS V14.01,2013-07-17 14:18:00,
2013-07-17 10:23:00,85.1,76.7,30.26,West,269,0.0,2.0,76,0.00,,CLR,0.00,VWS V14.01,2013-07-17 14:23:00,
2013-07-17 10:28:00,85.8,77.0,30.26,West,262,1.0,2.0,75,0.00,,CLR,0.00,VWS V14.01,2013-07-17 14:28:00,
2013-07-17 10:34:00,86.3,76.6,30.26,WSW,257,2.0,2.0,73,0.00,,CLR,0.00,VWS V14.01,2013-07-17 14:34:00,
2013-07-17 10:39:00,86.4,75.0,30.26,NNE,26,3.0,4.0,69,0.00,,CLR,0.00,VWS V14.01,2013-07-17 14:39:00,
2013-07-17 10:44:00,86.2,75.3,30.26,NW,318,2.0,4.0,70,0.00,,CLR,0.00,VWS V14.01,2013-07-17 14:44:00,
2013-07-17 10:49:00,86.3,75.4,30.26,NW,304,2.0,4.0,70,0.00,,CLR,0.00,VWS V14.01,2013-07-17 14:49:00,
2013-07-17 10:54:00,86.6,76.5,30.26,North,351,1.0,4.0,72,0.00,,CLR,0.00,VWS V14.01,2013-07-17 14:54:00,
2013-07-17 10:59:00,86.8,75.8,30.26,NW,318,0.0,4.0,70,0.00,,CLR,0.00,VWS V14.01,2013-07-17 14:59:00,
2013-07-17 11:04:00,86.9,75.1,30.26,WSW,256,2.0,2.0,68,0.00,,CLR,0.00,VWS V14.01,2013-07-17 15:04:00,
2013-07-17 11:09:00,86.8,74.5,30.26,WSW,245,1.0,5.0,67,0.00,,CLR,0.00,VWS V14.01,2013-07-17 15:09:00,
2013-07-17 11:15:00,87.0,75.2,30.25,West,262,2.0,5.0,68,0.00,,CLR,0.00,VWS V14.01,2013-07-17 15:15:00,
2013-07-17 11:20:00,87.4,74.2,30.25,North,6,0.0,6.0,65,0.00,,CLR,0.00,VWS V14.01,2013-07-17 15:20:00,
2013-07-17 11:25:00,87.4,74.7,30.25,NNW,346,3.0,6.0,66,0.00,,CLR,0.00,VWS V14.01,2013-07-17 15:25:00,
2013-07-17 11:30:00,87.2,74.0,30.25,NW,314,2.0,6.0,65,0.00,,CLR,0.00,VWS V14.01,2013-07-17 15:30:00,
2013-07-17 11:35:00,87.1,74.4,30.25,NW,309,0.0,1.0,66,0.00,,CLR,0.00,VWS V14.01,2013-07-17 15:35:00,
2013-07-17 11:40:00,87.5,75.2,30.25,West,266,1.0,3.0,67,0.00,,CLR,0.00,VWS V14.01,2013-07-17 15:40:00,
2013-07-17 11:45:00,87.6,73.9,30.25,WSW,241,1.0,3.0,64,0.00,,CLR,0.00,VWS V14.01,2013-07-17 15:45:00,
2013-07-17 11:50:00,87.9,74.2,30.25,West,267,0.0,3.0,64,0.00,,CLR,0.00,VWS V14.01,2013-07-17 15:50:00,
2013-07-17 11:56:00,88.4,75.6,30.25,NW,315,3.0,3.0,66,0.00,,CLR,0.00,VWS V14.01,2013-07-17 15:56:00,
2013-07-17 12:01:00,88.3,76.0,30.24,WSW,243,2.0,4.0,67,0.00,,CLR,0.00,VWS V14.01,2013-07-17 16:01:00,
2013-07-17 12:06:00,88.6,75.8,30.24,WNW,298,1.0,3.0,66,0.00,,CLR,0.00,VWS V14.01,2013-07-17 16:06:00,
2013-07-17 12:11:00,88.4,73.7,30.24,North,1,3.0,4.0,62,0.00,,CLR,0.00,VWS V14.01,2013-07-17 16:11:00,
2013-07-17 12:16:00,88.5,74.8,30.24,West,273,0.0,4.0,64,0.00,,CLR,0.00,VWS V14.01,2013-07-17 16:16:00,
2013-07-17 12:21:00,89.0,74.3,30.24,West,264,1.0,4.0,62,0.00,,CLR,0.00,VWS V14.01,2013-07-17 16:21:00,
2013-07-17 12:26:00,89.0,74.8,30.24,WSW,239,2.0,4.0,63,0.00,,CLR,0.00,VWS V14.01,2013-07-17 16:26:00,
2013-07-17 12:31:00,89.1,74.9,30.24,WNW,288,0.0,4.0,63,0.00,,CLR,0.00,VWS V14.01,2013-07-17 16:31:00,
2013-07-17 12:36:00,89.1,73.9,30.24,West,266,1.0,3.0,61,0.00,,CLR,0.00,VWS V14.01,2013-07-17 16:36:00,
2013-07-17 12:42:00,89.2,74.5,30.24,North,8,1.0,3.0,62,0.00,,CLR,0.00,VWS V14.01,2013-07-17 16:42:00,
2013-07-17 12:47:00,89.1,74.4,30.24,West,271,1.0,3.0,62,0.00,,CLR,0.00,VWS V14.01,2013-07-17 16:47:00,
2013-07-17 12:52:00,89.1,73.4,30.23,WSW,255,2.0,3.0,60,0.00,,CLR,0.00,VWS V14.01,2013-07-17 16:52:00,
2013-07-17 12:57:00,89.4,74.7,30.24,NW,319,1.0,3.0,62,0.00,,CLR,0.00,VWS V14.01,2013-07-17 16:57:00,
2013-07-17 13:02:00,90.0,74.8,30.23,West,264,2.0,3.0,61,0.00,,CLR,0.00,VWS V14.01,2013-07-17 17:02:00,
2013-07-17 13:07:00,89.9,74.2,30.23,NW,325,2.0,3.0,60,0.00,,CLR,0.00,VWS V14.01,2013-07-17 17:07:00,
2013-07-17 13:12:00,89.5,74.8,30.23,WSW,245,1.0,4.0,62,0.00,,CLR,0.00,VWS V14.01,2013-07-17 17:12:00,
2013-07-17 13:17:00,89.9,73.7,30.23,NW,322,2.0,4.0,59,0.00,,CLR,0.00,VWS V14.01,2013-07-17 17:17:00,
2013-07-17 13:22:00,89.7,75.4,30.22,NW,309,2.0,4.0,63,0.00,,CLR,0.00,VWS V14.01,2013-07-17 17:22:00,
2013-07-17 13:28:00,89.4,73.7,30.22,NW,316,0.0,4.0,60,0.00,,CLR,0.00,VWS V14.01,2013-07-17 17:28:00,
2013-07-17 13:33:00,89.5,74.3,30.22,North,349,3.0,5.0,61,0.00,,CLR,0.00,VWS V14.01,2013-07-17 17:33:00,
2013-07-17 13:38:00,89.4,74.7,30.22,West,267,1.0,4.0,62,0.00,,CLR,0.00,VWS V14.01,2013-07-17 17:38:00,
2013-07-17 13:43:00,89.5,75.7,30.22,WSW,252,2.0,5.0,64,0.00,,CLR,0.00,VWS V14.01,2013-07-17 17:43:00,
2013-07-17 13:48:00,89.4,75.6,30.21,NW,305,1.0,5.0,64,0.00,,CLR,0.00,VWS V14.01,2013-07-17 17:48:00,
2013-07-17 13:53:00,89.5,74.8,30.21,WNW,292,1.0,5.0,62,0.00,,CLR,0.00,VWS V14.01,2013-07-17 17:53:00,
2013-07-17 13:58:00,89.4,75.6,30.21,NW,312,1.0,6.0,64,0.00,,CLR,0.00,VWS V14.01,2013-07-17 17:58:00,
2013-07-17 14:03:00,89.1,75.8,30.20,West,269,0.0,2.0,65,0.00,,CLR,0.00,VWS V14.01,2013-07-17 18:03:00,
2013-07-17 14:08:00,89.2,75.4,30.20,NW,319,2.0,5.0,64,0.00,,CLR,0.00,VWS V14.01,2013-07-17 18:08:00,
2013-07-17 14:13:00,89.2,74.5,30.19,West,270,1.0,5.0,62,0.00,,CLR,0.00,VWS V14.01,2013-07-17 18:13:00,
2013-07-17 14:19:00,89.2,74.5,30.19,NW,312,2.0,5.0,62,0.00,,CLR,0.00,VWS V14.01,2013-07-17 18:19:00,
2013-07-17 14:24:00,89.3,75.5,30.19,West,266,1.0,5.0,64,0.00,,CLR,0.00,VWS V14.01,2013-07-17 18:24:00,
2013-07-17 14:29:00,89.3,75.1,30.18,West,267,1.0,5.0,63,0.00,,CLR,0.00,VWS V14.01,2013-07-17 18:29:00,
2013-07-17 14:34:00,89.2,74.5,30.18,West,271,3.0,3.0,62,0.00,,CLR,0.00,VWS V14.01,2013-07-17 18:34:00,
2013-07-17 14:39:00,89.3,75.5,30.18,WSW,248,2.0,3.0,64,0.00,,CLR,0.00,VWS V14.01,2013-07-17 18:39:00,
2013-07-17 14:44:00,89.5,73.8,30.18,West,271,1.0,3.0,60,0.00,,CLR,0.00,VWS V14.01,2013-07-17 18:44:00,
2013-07-17 14:49:00,89.6,76.3,30.18,WSW,240,2.0,3.0,65,0.00,,CLR,0.00,VWS V14.01,2013-07-17 18:49:00,
2013-07-17 14:54:00,89.7,75.9,30.18,West,262,1.0,3.0,64,0.00,,CLR,0.00,VWS V14.01,2013-07-17 18:54:00,
2013-07-17 15:00:00,89.9,75.1,30.17,WSW,253,3.0,4.0,62,0.00,,CLR,0.00,VWS V14.01,2013-07-17 19:00:00,
2013-07-17 15:05:00,89.7,74.5,30.17,WSW,249,4.0,8.0,61,0.00,,CLR,0.00,VWS V14.01,2013-07-17 19:05:00,
2013-07-17 15:10:00,89.5,74.8,30.17,West,266,2.0,8.0,62,0.00,,CLR,0.00,VWS V14.01,2013-07-17 19:10:00,
2013-07-17 15:15:00,89.6,76.3,30.17,West,279,1.0,8.0,65,0.00,,CLR,0.00,VWS V14.01,2013-07-17 19:15:00,
2013-07-17 15:20:00,89.8,75.5,30.17,West,276,2.0,8.0,63,0.00,,CLR,0.00,VWS V14.01,2013-07-17 19:20:00,
2013-07-17 15:25:00,89.9,75.6,30.17,West,262,1.0,8.0,63,0.00,,CLR,0.00,VWS V14.01,2013-07-17 19:25:00,
2013-07-17 15:30:00,90.0,76.2,30.17,West,273,3.0,8.0,64,0.00,,CLR,0.00,VWS V14.01,2013-07-17 19:30:00,
2013-07-17 15:36:00,89.9,76.6,30.17,WSW,246,1.0,2.0,65,0.00,,CLR,0.00,VWS V14.01,2013-07-17 19:36:00,
2013-07-17 15:41:00,90.0,77.6,30.17,WSW,251,1.0,4.0,67,0.00,,CLR,0.00,VWS V14.01,2013-07-17 19:41:00,
2013-07-17 15:46:00,90.2,78.7,30.17,NNW,330,4.0,5.0,69,0.00,,CLR,0.00,VWS V14.01,2013-07-17 19:46:00,
2013-07-17 15:51:00,90.1,76.3,30.16,NNW,340,3.0,5.0,64,0.00,,CLR,0.00,VWS V14.01,2013-07-17 19:51:00,
2013-07-17 15:56:00,89.9,77.0,30.16,North,350,1.0,5.0,66,0.00,,CLR,0.00,VWS V14.01,2013-07-17 19:56:00,
2013-07-17 16:01:00,89.9,76.1,30.16,WSW,256,3.0,5.0,64,0.00,,CLR,0.00,VWS V14.01,2013-07-17 20:01:00,
2013-07-17 16:06:00,89.5,75.7,30.16,West,276,1.0,2.0,64,0.00,,CLR,0.00,VWS V14.01,2013-07-17 20:06:00,
2013-07-17 16:11:00,89.3,76.0,30.15,NW,307,0.0,2.0,65,0.00,,CLR,0.00,VWS V14.01,2013-07-17 20:11:00,
2013-07-17 16:16:00,89.5,76.7,30.16,West,271,3.0,4.0,66,0.00,,CLR,0.00,VWS V14.01,2013-07-17 20:16:00,
2013-07-17 16:22:00,89.6,76.7,30.15,West,260,2.0,4.0,66,0.00,,CLR,0.00,VWS V14.01,2013-07-17 20:22:00,
2013-07-17 16:27:00,88.9,76.1,30.15,West,273,1.0,4.0,66,0.00,,CLR,0.00,VWS V14.01,2013-07-17 20:27:00,
2013-07-17 16:32:00,88.3,76.4,30.15,West,270,1.0,4.0,68,0.00,,SCT065,0.00,VWS V14.01,2013-07-17 20:32:00,
2013-07-17 16:37:00,88.0,76.6,30.15,West,267,1.0,2.0,69,0.00,,SCT065,0.00,VWS V14.01,2013-07-17 20:37:00,
2013-07-17 16:42:00,88.6,77.1,30.15,West,274,1.0,2.0,69,0.00,,SCT065,0.00,VWS V14.01,2013-07-17 20:42:00,
2013-07-17 16:47:00,89.2,77.7,30.15,WSW,256,1.0,3.0,69,0.00,,SCT065,0.00,VWS V14.01,2013-07-17 20:47:00,
2013-07-17 16:52:00,89.3,77.8,30.15,West,267,2.0,3.0,69,0.00,,SCT065,0.00,VWS V14.01,2013-07-17 20:52:00,
2013-07-17 16:57:00,89.5,78.9,30.14,WSW,248,2.0,3.0,71,0.00,,SCT065,0.00,VWS V14.01,2013-07-17 20:57:00,
2013-07-17 17:03:00,89.1,77.2,30.15,West,274,2.0,4.0,68,0.00,,SCT065,0.00,VWS V14.01,2013-07-17 21:03:00,
2013-07-17 17:08:00,88.7,77.2,30.14,West,266,2.0,3.0,69,0.00,,SCT065,0.00,VWS V14.01,2013-07-17 21:08:00,
2013-07-17 17:13:00,88.6,78.0,30.14,West,270,0.0,3.0,71,0.00,,SCT065,0.00,VWS V14.01,2013-07-17 21:13:00,
2013-07-17 17:18:00,88.8,77.8,30.13,West,274,2.0,3.0,70,0.00,,SCT065,0.00,VWS V14.01,2013-07-17 21:18:00,
2013-07-17 17:23:00,88.3,77.7,30.13,West,278,1.0,3.0,71,0.00,,SCT065,0.00,VWS V14.01,2013-07-17 21:23:00,
2013-07-17 17:28:00,88.4,78.7,30.13,North,358,2.0,3.0,73,0.00,,SCT065,0.00,VWS V14.01,2013-07-17 21:28:00,
2013-07-17 17:33:00,88.6,78.4,30.13,NW,318,2.0,2.0,72,0.00,,SCT065,0.00,VWS V14.01,2013-07-17 21:33:00,
2013-07-17 17:39:00,88.7,78.9,30.12,NNW,329,1.0,2.0,73,0.00,,SCT065,0.00,VWS V14.01,2013-07-17 21:39:00,
2013-07-17 17:44:00,88.5,78.3,30.12,NW,312,2.0,2.0,72,0.00,,SCT065,0.00,VWS V14.01,2013-07-17 21:44:00,
2013-07-17 17:49:00,88.4,78.2,30.12,WNW,292,1.0,6.0,72,0.00,,FEW050,0.00,VWS V14.01,2013-07-17 21:49:00,
2013-07-17 17:54:00,88.1,77.9,30.12,NNE,18,5.0,6.0,72,0.00,,FEW050,0.00,VWS V14.01,2013-07-17 21:54:00,
2013-07-17 17:59:00,88.1,77.5,30.12,West,270,1.0,6.0,71,0.00,,FEW050,0.00,VWS V14.01,2013-07-17 21:59:00,
2013-07-17 18:04:00,88.4,77.8,30.12,North,356,1.0,2.0,71,0.00,,FEW050,0.00,VWS V14.01,2013-07-17 22:04:00,
2013-07-17 18:09:00,88.4,76.5,30.12,WSW,256,2.0,4.0,68,0.00,,FEW050,0.00,VWS V14.01,2013-07-17 22:09:00,
2013-07-17 18:14:00,88.3,76.8,30.12,West,274,1.0,5.0,69,0.00,,FEW050,0.00,VWS V14.01,2013-07-17 22:14:00,
2013-07-17 18:19:00,88.2,76.8,30.13,NNE,32,3.0,5.0,69,0.00,,FEW050,0.00,VWS V14.01,2013-07-17 22:19:00,
2013-07-17 18:24:00,87.9,76.5,30.13,WNW,294,2.0,5.0,69,0.00,,FEW050,0.00,VWS V14.01,2013-07-17 22:24:00,
2013-07-17 18:28:00,87.9,76.5,30.13,West,269,1.0,5.0,69,0.00,,FEW050,0.00,VWS V14.01,2013-07-17 22:28:00,
2013-07-17 18:33:00,87.9,75.6,30.13,NW,323,3.0,5.0,67,0.00,,CLR,0.00,VWS V14.01,2013-07-17 22:33:00,
2013-07-17 18:38:00,88.0,76.1,30.13,NW,316,2.0,4.0,68,0.00,,CLR,0.00,VWS V14.01,2013-07-17 22:38:00,
2013-07-17 18:43:00,87.7,77.1,30.13,NW,316,2.0,4.0,71,0.00,,CLR,0.00,VWS V14.01,2013-07-17 22:43:00,
2013-07-17 18:48:00,87.3,75.9,30.13,WNW,291,1.0,4.0,69,0.00,,CLR,0.00,VWS V14.01,2013-07-17 22:48:00,
2013-07-17 18:53:00,87.2,76.2,30.13,NW,316,0.0,4.0,70,0.00,,CLR,0.00,VWS V14.01,2013-07-17 22:53:00,
2013-07-17 18:58:00,87.2,76.7,30.12,WNW,283,0.0,4.0,71,0.00,,CLR,0.00,VWS V14.01,2013-07-17 22:58:00,
2013-07-17 19:03:00,87.0,76.0,30.13,North,8,0.0,1.0,70,0.00,,CLR,0.00,VWS V14.01,2013-07-17 23:03:00,
2013-07-17 19:09:00,86.7,77.0,30.12,North,8,0.0,1.0,73,0.00,,CLR,0.00,VWS V14.01,2013-07-17 23:09:00,
2013-07-17 19:14:00,86.1,75.2,30.12,North,358,0.0,2.0,70,0.00,,CLR,0.00,VWS V14.01,2013-07-17 23:14:00,
2013-07-17 19:19:00,85.6,75.1,30.12,NNW,334,1.0,2.0,71,0.00,,CLR,0.00,VWS V14.01,2013-07-17 23:19:00,
2013-07-17 19:24:00,84.8,74.8,30.12,NNW,330,1.0,2.0,72,0.00,,CLR,0.00,VWS V14.01,2013-07-17 23:24:00,
2013-07-17 19:29:00,84.4,74.8,30.13,NNW,333,0.0,2.0,73,0.00,,CLR,0.00,VWS V14.01,2013-07-17 23:29:00,
2013-07-17 19:34:00,84.2,74.2,30.13,West,273,1.0,2.0,72,0.00,,FEW043,0.00,VWS V14.01,2013-07-17 23:34:00,
2013-07-17 19:39:00,83.9,74.3,30.13,NW,315,0.0,2.0,73,0.00,,FEW043,0.00,VWS V14.01,2013-07-17 23:39:00,
2013-07-17 19:44:00,83.5,73.9,30.13,NNW,335,0.0,2.0,73,0.00,,FEW043,0.00,VWS V14.01,2013-07-17 23:44:00,
2013-07-17 19:49:00,83.3,74.2,30.13,NNW,334,1.0,2.0,74,0.00,,FEW043,0.00,VWS V14.01,2013-07-17 23:49:00,
2013-07-17 19:55:00,82.6,73.9,30.13,NNW,335,0.0,2.0,75,0.00,,FEW043,0.00,VWS V14.01,2013-07-17 23:55:00,
2013-07-17 20:00:00,82.1,74.2,30.13,NNW,334,0.0,2.0,77,0.00,,FEW043,0.00,VWS V14.01,2013-07-18 00:00:00,
2013-07-17 20:05:00,81.6,74.5,30.14,NNW,334,0.0,0.0,79,0.00,,FEW043,0.00,VWS V14.01,2013-07-18 00:05:00,
2013-07-17 20:10:00,81.0,73.5,30.14,NNW,334,0.0,0.0,78,0.00,,FEW043,0.00,VWS V14.01,2013-07-18 00:10:00,
2013-07-17 20:15:00,80.5,73.4,30.13,NNW,334,0.0,0.0,79,0.00,,FEW043,0.00,VWS V14.01,2013-07-18 00:15:00,
2013-07-17 20:20:00,80.4,73.7,30.13,NNW,333,0.0,0.0,80,0.00,,FEW043,0.00,VWS V14.01,2013-07-18 00:20:00,
2013-07-17 20:25:00,80.0,73.7,30.13,NNW,333,0.0,0.0,81,0.00,,FEW043,0.00,VWS V14.01,2013-07-18 00:25:00,
2013-07-17 20:30:00,79.4,72.7,30.13,NNW,333,0.0,0.0,80,0.00,,FEW043,0.00,VWS V14.01,2013-07-18 00:30:00,
2013-07-17 20:35:00,79.2,72.9,30.13,NNW,333,0.0,0.0,81,0.00,,CLR,0.00,VWS V14.01,2013-07-18 00:35:00,
2013-07-17 20:41:00,79.1,73.5,30.13,NNW,333,0.0,0.0,83,0.00,,CLR,0.00,VWS V14.01,2013-07-18 00:41:00,
2013-07-17 20:46:00,78.5,72.6,30.13,NNW,333,0.0,0.0,82,0.00,,CLR,0.00,VWS V14.01,2013-07-18 00:46:00,
2013-07-17 20:51:00,78.3,73.1,30.13,NNW,330,0.0,0.0,84,0.00,,CLR,0.00,VWS V14.01,2013-07-18 00:51:00,
2013-07-17 20:56:00,78.3,72.7,30.13,NNW,330,0.0,0.0,83,0.00,,CLR,0.00,VWS V14.01,2013-07-18 00:56:00,
2013-07-17 21:01:00,78.4,72.4,30.13,NW,314,0.0,0.0,82,0.00,,CLR,0.00,VWS V14.01,2013-07-18 01:01:00,
2013-07-17 21:06:00,78.6,72.3,30.13,WNW,292,0.0,0.0,81,0.00,,CLR,0.00,VWS V14.01,2013-07-18 01:06:00,
2013-07-17 21:11:00,79.3,72.2,30.13,WNW,291,0.0,0.0,79,0.00,,CLR,0.00,VWS V14.01,2013-07-18 01:11:00,
2013-07-17 21:16:00,80.1,72.2,30.13,West,276,0.0,2.0,77,0.00,,CLR,0.00,VWS V14.01,2013-07-18 01:16:00,
2013-07-17 21:21:00,80.7,72.4,30.13,West,273,0.0,2.0,76,0.00,,CLR,0.00,VWS V14.01,2013-07-18 01:21:00,
2013-07-17 21:27:00,80.9,72.2,30.13,West,274,0.0,2.0,75,0.00,,CLR,0.00,VWS V14.01,2013-07-18 01:27:00,
2013-07-17 21:32:00,81.1,72.4,30.13,West,269,0.0,2.0,75,0.00,,CLR,0.00,VWS V14.01,2013-07-18 01:32:00,
2013-07-17 21:37:00,80.7,72.8,30.13,WNW,300,0.0,0.0,77,0.00,,CLR,0.00,VWS V14.01,2013-07-18 01:37:00,
2013-07-17 21:42:00,80.2,72.7,30.13,West,277,0.0,0.0,78,0.00,,CLR,0.00,VWS V14.01,2013-07-18 01:42:00,
2013-07-17 21:47:00,80.6,73.1,30.13,West,276,0.0,0.0,78,0.00,,CLR,0.00,VWS V14.01,2013-07-18 01:47:00,
2013-07-17 21:52:00,80.7,72.8,30.14,West,278,0.0,0.0,77,0.00,,CLR,0.00,VWS V14.01,2013-07-18 01:52:00,
2013-07-17 21:57:00,80.6,73.1,30.14,WNW,285,0.0,0.0,78,0.00,,CLR,0.00,VWS V14.01,2013-07-18 01:57:00,
2013-07-17 22:03:00,80.3,73.2,30.14,West,278,1.0,1.0,79,0.00,,CLR,0.00,VWS V14.01,2013-07-18 02:03:00,
2013-07-17 22:08:00,80.6,73.5,30.14,WNW,300,1.0,2.0,79,0.00,,CLR,0.00,VWS V14.01,2013-07-18 02:08:00,
2013-07-17 22:13:00,81.0,73.9,30.14,West,272,1.0,2.0,79,0.00,,CLR,0.00,VWS V14.01,2013-07-18 02:13:00,
2013-07-17 22:18:00,81.1,73.6,30.14,West,277,1.0,2.0,78,0.00,,CLR,0.00,VWS V14.01,2013-07-18 02:18:00,
2013-07-17 22:23:00,81.1,74.0,30.14,West,262,1.0,2.0,79,0.00,,CLR,0.00,VWS V14.01,2013-07-18 02:23:00,
2013-07-17 22:28:00,81.0,73.9,30.14,West,271,1.0,2.0,79,0.00,,CLR,0.00,VWS V14.01,2013-07-18 02:28:00,
2013-07-17 22:33:00,81.2,74.1,30.14,West,269,1.0,1.0,79,0.00,,CLR,0.00,VWS V14.01,2013-07-18 02:33:00,
2013-07-17 22:38:00,81.3,74.2,30.14,West,266,2.0,2.0,79,0.00,,CLR,0.00,VWS V14.01,2013-07-18 02:38:00,
2013-07-17 22:43:00,81.2,74.1,30.14,West,278,0.0,2.0,79,0.00,,CLR,0.00,VWS V14.01,2013-07-18 02:43:00,
2013-07-17 22:49:00,81.1,74.3,30.14,West,260,1.0,2.0,80,0.00,,CLR,0.00,VWS V14.01,2013-07-18 02:49:00,
2013-07-17 22:54:00,81.0,74.2,30.14,West,267,1.0,2.0,80,0.00,,CLR,0.00,VWS V14.01,2013-07-18 02:54:00,
2013-07-17 22:59:00,81.0,74.2,30.14,West,276,0.0,3.0,80,0.00,,CLR,0.00,VWS V14.01,2013-07-18 02:59:00,
2013-07-17 23:04:00,81.2,74.4,30.14,West,278,1.0,1.0,80,0.00,,CLR,0.00,VWS V14.01,2013-07-18 03:04:00,
2013-07-17 23:09:00,81.3,74.5,30.14,West,270,0.0,2.0,80,0.00,,CLR,0.00,VWS V14.01,2013-07-18 03:09:00,
2013-07-17 23:14:00,81.2,74.4,30.14,West,273,0.0,2.0,80,0.00,,CLR,0.00,VWS V14.01,2013-07-18 03:14:00,
2013-07-17 23:19:00,81.1,74.3,30.14,WNW,290,0.0,2.0,80,0.00,,CLR,0.00,VWS V14.01,2013-07-18 03:19:00,
2013-07-17 23:25:00,81.0,74.2,30.14,West,271,2.0,3.0,80,0.00,,CLR,0.00,VWS V14.01,2013-07-18 03:25:00,
2013-07-17 23:30:00,81.0,74.6,30.14,West,266,2.0,3.0,81,0.00,,CLR,0.00,VWS V14.01,2013-07-18 03:30:00,
2013-07-17 23:35:00,80.9,74.5,30.15,West,269,1.0,3.0,81,0.00,,CLR,0.00,VWS V14.01,2013-07-18 03:35:00,
2013-07-17 23:41:00,80.9,74.5,30.15,WSW,256,2.0,3.0,81,0.00,,CLR,0.00,VWS V14.01,2013-07-18 03:41:00,
2013-07-17 23:46:00,80.6,74.6,30.15,West,264,2.0,3.0,82,0.00,,CLR,0.00,VWS V14.01,2013-07-18 03:46:00,
2013-07-17 23:51:00,80.4,74.4,30.15,West,271,1.0,3.0,82,0.00,,CLR,0.00,VWS V14.01,2013-07-18 03:51:00,
2013-07-17 23:56:00,80.3,74.3,30.15,West,267,0.0,3.0,82,0.00,,CLR,0.00,VWS V14.01,2013-07-18 03:56:00,